KMLU 231953Z VRB03KT 10SM CLR 33/20 A3003 RMK AO2 SLP166 T03330200